Time;durP1;ratioP1;P1;durP2;ratioP2;P2;SDS_P1;SDS_P2;PMS_P1;PMS_P2;Temp;Humidity;BMP_temperature;BMP_pressure;BME280_temperature;BME280_humidity;BME280_pressure;Samples;Min_cycle;Max_cycle;Signal;HPM_P1;HPM_P2
2022/08/18 00:00:59;;;;;;;31.80;28.38;;;21.20;99.90;;;;;;4591853;19;20456;-44
2022/08/18 00:02:30;;;;;;;29.95;26.77;;;21.20;99.90;;;;;;4591758;19;20041;-40
2022/08/18 00:04:02;;;;;;;31.58;27.40;;;21.20;99.90;;;;;;4589908;19;20085;-35
2022/08/18 00:05:34;;;;;;;31.70;27.83;;;21.20;99.90;;;;;;4592117;19;20068;-35
2022/08/18 00:07:05;;;;;;;30.83;27.52;;;21.20;99.90;;;;;;4591591;19;20014;-41
2022/08/18 00:08:36;;;;;;;31.60;28.20;;;21.20;99.90;;;;;;4591873;19;20511;-38
2022/08/18 00:10:08;;;;;;;30.05;26.77;;;21.20;99.90;;;;;;4592058;19;20073;-37
2022/08/18 00:11:40;;;;;;;30.90;27.70;;;21.20;99.90;;;;;;4590778;19;20002;-37
2022/08/18 00:13:11;;;;;;;30.98;27.98;;;21.10;99.90;;;;;;4590222;19;20014;-35
2022/08/18 00:14:43;;;;;;;31.63;28.27;;;21.10;99.90;;;;;;4591595;19;20503;-36
2022/08/18 00:16:14;;;;;;;31.00;26.67;;;21.20;99.90;;;;;;4590424;19;20010;-34
2022/08/18 00:17:46;;;;;;;33.78;30.27;;;21.10;99.90;;;;;;4591252;19;20238;-42
2022/08/18 00:19:17;;;;;;;30.80;27.70;;;21.20;99.90;;;;;;4589580;19;20070;-35
2022/08/18 00:20:47;;;;;;;33.00;28.65;;;21.20;99.90;;;;;;4591304;19;20022;-35
2022/08/18 00:22:19;;;;;;;30.92;27.67;;;21.20;99.90;;;;;;4591960;19;20018;-38
2022/08/18 00:23:50;;;;;;;32.22;28.90;;;21.10;99.90;;;;;;4590303;19;20015;-40
2022/08/18 00:25:21;;;;;;;32.28;28.80;;;21.20;99.90;;;;;;4591408;19;20396;-35
2022/08/18 00:26:53;;;;;;;32.58;28.77;;;21.10;99.90;;;;;;4591862;19;20010;-39
2022/08/18 00:28:24;;;;;;;34.22;29.17;;;21.10;99.90;;;;;;4591616;19;20093;-39
2022/08/18 00:29:58;;;;;;;36.25;32.15;;;21.10;99.90;;;;;;4591299;19;20018;-34
2022/08/18 00:31:30;;;;;;;35.22;31.45;;;21.20;99.90;;;;;;4591207;19;20010;-38
2022/08/18 00:33:01;;;;;;;33.72;29.70;;;21.10;99.90;;;;;;4591297;19;20011;-39
2022/08/18 00:34:32;;;;;;;31.05;27.15;;;21.10;99.90;;;;;;4591872;19;20011;-38
2022/08/18 00:36:03;;;;;;;30.25;27.02;;;21.10;99.90;;;;;;4588417;19;20014;-39
2022/08/18 00:37:35;;;;;;;27.98;25.08;;;21.10;99.90;;;;;;4588949;19;20015;-38
2022/08/18 00:39:06;;;;;;;;;;;21.20;99.90;;;;;;4590494;19;20532;-35
2022/08/18 00:40:48;;;;;;;27.30;24.42;;;21.10;99.90;;;;;;4588964;19;19919;-36
2022/08/18 00:42:22;;;;;;;27.95;24.83;;;21.10;99.90;;;;;;4588835;19;20472;-41
2022/08/18 00:43:53;;;;;;;26.55;23.90;;;21.20;99.90;;;;;;4588100;19;20014;-34
2022/08/18 00:45:26;;;;;;;25.63;23.13;;;21.10;99.90;;;;;;4589352;19;20002;-38
2022/08/18 00:46:58;;;;;;;24.33;21.95;;;21.10;99.90;;;;;;4588821;19;20467;-39
2022/08/18 00:48:29;;;;;;;25.30;22.85;;;21.10;99.90;;;;;;4588659;19;20015;-36
2022/08/18 00:49:59;;;;;;;25.05;22.63;;;21.10;99.90;;;;;;4588802;19;20006;-37
2022/08/18 00:51:36;;;;;;;25.92;23.42;;;21.10;99.90;;;;;;4588875;19;20482;-41
2022/08/18 00:53:10;;;;;;;25.83;23.25;;;21.10;99.90;;;;;;4588344;19;20010;-35
2022/08/18 00:54:42;;;;;;;26.58;23.90;;;21.10;99.90;;;;;;4588565;19;20563;-37
2022/08/18 00:56:23;;;;;;;24.60;22.23;;;21.10;99.90;;;;;;4588425;19;20018;-38
2022/08/18 00:57:56;;;;;;;27.90;25.10;;;21.20;99.90;;;;;;4588652;19;20117;-36
2022/08/18 00:59:41;;;;;;;28.45;25.65;;;21.10;99.90;;;;;;4588473;19;19995;-39
2022/08/18 01:01:12;;;;;;;29.10;26.20;;;21.20;99.90;;;;;;4588289;19;20027;-42
2022/08/18 01:02:53;;;;;;;29.05;26.00;;;21.10;99.90;;;;;;4590332;19;20010;-35
2022/08/18 01:04:35;;;;;;;30.90;27.67;;;21.00;99.90;;;;;;4589511;19;20015;-40
2022/08/18 01:06:20;;;;;;;29.35;26.30;;;21.00;99.90;;;;;;4590838;19;20010;-40
2022/08/18 01:07:51;;;;;;;30.05;27.02;;;21.00;99.90;;;;;;4588492;19;20021;-41
2022/08/18 01:09:22;;;;;;;27.50;24.90;;;21.00;99.90;;;;;;4588356;19;20006;-35
2022/08/18 01:10:53;;;;;;;29.20;26.20;;;21.00;99.90;;;;;;4588255;19;20063;-36
2022/08/18 01:12:25;;;;;;;26.70;24.13;;;21.10;99.90;;;;;;4588780;19;20022;-36
2022/08/18 01:13:57;;;;;;;25.35;22.85;;;21.30;99.90;;;;;;4588134;19;20006;-40
2022/08/18 01:15:28;;;;;;;22.42;20.23;;;21.50;99.90;;;;;;4590378;19;20014;-37
2022/08/18 01:22:46;;;;;;;21.30;19.10;;;22.10;99.90;;;;;;4590204;19;20014;-38
2022/08/18 01:24:19;;;;;;;21.58;18.60;;;22.20;99.90;;;;;;4588687;19;20517;-41
2022/08/18 01:26:00;;;;;;;20.75;18.55;;;22.30;99.90;;;;;;4589777;19;20010;-40
2022/08/18 01:27:31;;;;;;;20.50;18.55;;;22.40;99.90;;;;;;4588496;19;20015;-40
2022/08/18 01:29:10;;;;;;;21.20;19.10;;;22.40;99.90;;;;;;4588788;19;20428;-37
2022/08/18 01:30:47;;;;;;;22.02;19.92;;;22.50;99.90;;;;;;4589607;19;20336;-35
2022/08/18 01:32:20;;;;;;;20.52;18.52;;;22.50;99.90;;;;;;4589711;19;20493;-35
2022/08/18 01:33:51;;;;;;;20.63;18.45;;;22.50;99.90;;;;;;4590571;19;20523;-38
2022/08/18 01:35:24;;;;;;;21.30;19.25;;;22.60;99.90;;;;;;4590385;19;20025;-37
2022/08/18 01:36:55;;;;;;;21.30;19.10;;;22.60;99.90;;;;;;4588937;19;20007;-35
2022/08/18 01:38:26;;;;;;;20.83;18.85;;;22.60;99.90;;;;;;4589032;19;20007;-35
2022/08/18 01:39:57;;;;;;;20.70;18.52;;;22.70;99.90;;;;;;4588725;19;20014;-35
2022/08/18 01:41:29;;;;;;;20.58;18.48;;;22.70;99.90;;;;;;4589730;19;19999;-37
2022/08/18 01:43:02;;;;;;;20.17;18.08;;;22.70;99.90;;;;;;4589723;19;20018;-40
2022/08/18 01:44:33;;;;;;;20.38;18.38;;;22.70;99.90;;;;;;4589752;19;20011;-37
2022/08/18 01:46:04;;;;;;;20.23;18.30;;;22.80;99.90;;;;;;4590121;19;20010;-35
2022/08/18 01:47:35;;;;;;;;;;;22.70;99.90;;;;;;4590143;19;20025;-42
2022/08/18 01:49:07;;;;;;;20.00;17.90;;;22.70;99.90;;;;;;4589305;19;20011;-36
2022/08/18 01:50:40;;;;;;;20.63;18.63;;;22.80;99.90;;;;;;4589846;19;20468;-41
2022/08/18 01:52:18;;;;;;;19.70;17.65;;;22.80;99.90;;;;;;4589874;19;20011;-37
2022/08/18 01:53:49;;;;;;;18.33;16.60;;;22.80;99.90;;;;;;4588999;19;20007;-34
2022/08/18 01:55:20;;;;;;;18.48;16.67;;;22.80;99.90;;;;;;4589449;19;20017;-36
2022/08/18 01:56:52;;;;;;;18.65;16.85;;;22.80;99.90;;;;;;4590147;19;20473;-35
2022/08/18 01:58:26;;;;;;;18.55;16.45;;;22.80;99.90;;;;;;4590448;19;20072;-38
2022/08/18 01:59:59;;;;;;;17.25;15.25;;;22.80;99.90;;;;;;4588314;19;20002;-35
2022/08/18 02:01:31;;;;;;;17.52;15.90;;;22.80;99.90;;;;;;4588333;19;20018;-36
2022/08/18 02:03:05;;;;;;;17.67;15.85;;;22.70;99.90;;;;;;4589425;19;20033;-36
2022/08/18 02:04:37;;;;;;;18.10;16.35;;;22.70;99.90;;;;;;4588515;19;20011;-41
2022/08/18 02:06:09;;;;;;;18.90;17.00;;;22.60;99.90;;;;;;4592704;19;20070;-36
2022/08/18 02:07:40;;;;;;;18.00;16.10;;;22.60;99.90;;;;;;4593125;19;20480;-43
2022/08/18 02:09:11;;;;;;;17.30;15.48;;;22.60;99.90;;;;;;4593193;19;20014;-34
2022/08/18 02:10:42;;;;;;;17.85;16.00;;;22.50;99.90;;;;;;4594296;19;20023;-44
2022/08/18 02:12:13;;;;;;;16.85;14.98;;;22.50;99.90;;;;;;4593888;19;19995;-37
2022/08/18 02:13:45;;;;;;;16.23;14.65;;;22.50;99.90;;;;;;4593085;19;20129;-34
2022/08/18 02:15:16;;;;;;;17.15;15.35;;;22.40;99.90;;;;;;4593941;19;20006;-34
2022/08/18 02:16:47;;;;;;;17.42;15.57;;;22.40;99.90;;;;;;4594297;19;20031;-38
2022/08/18 02:18:22;;;;;;;17.98;16.27;;;22.50;99.90;;;;;;4594025;19;20014;-38
2022/08/18 02:19:54;;;;;;;18.42;16.33;;;22.50;99.90;;;;;;4593501;19;20062;-39
2022/08/18 02:21:25;;;;;;;;;;;22.50;99.90;;;;;;4595235;19;20020;-35
2022/08/18 02:22:57;;;;;;;18.85;16.98;;;22.50;99.90;;;;;;4594050;19;19941;-42
2022/08/18 02:24:28;;;;;;;16.67;15.02;;;22.50;99.90;;;;;;4590947;19;20010;-34
2022/08/18 02:26:04;;;;;;;16.35;14.63;;;22.50;99.90;;;;;;4593888;19;20086;-36
2022/08/18 02:27:35;;;;;;;16.33;14.65;;;22.50;99.90;;;;;;4593662;19;20010;-35
2022/08/18 02:29:06;;;;;;;17.38;15.57;;;22.50;99.90;;;;;;4594260;19;20062;-37
2022/08/18 02:30:37;;;;;;;16.70;14.98;;;22.50;99.90;;;;;;4593897;19;20341;-40
2022/08/18 02:32:09;;;;;;;16.15;14.55;;;22.50;99.90;;;;;;4593805;19;20025;-37
2022/08/18 02:33:40;;;;;;;16.98;15.30;;;22.50;99.90;;;;;;4594217;19;20007;-38
2022/08/18 02:35:11;;;;;;;16.38;14.68;;;22.50;99.90;;;;;;4593910;19;20463;-42
2022/08/18 02:36:42;;;;;;;16.88;15.20;;;22.50;99.90;;;;;;4593865;19;20475;-37
2022/08/18 02:38:14;;;;;;;17.60;15.80;;;22.50;99.90;;;;;;4594148;19;20011;-37
2022/08/18 02:39:45;;;;;;;17.08;15.38;;;22.60;99.90;;;;;;4593885;19;20014;-34
2022/08/18 02:41:16;;;;;;;17.25;15.55;;;22.50;99.90;;;;;;4593503;19;20475;-35
2022/08/18 02:42:47;;;;;;;18.17;16.38;;;22.50;99.90;;;;;;4593661;19;20002;-34
2022/08/18 02:44:18;;;;;;;17.05;15.25;;;22.50;99.90;;;;;;4592230;19;20077;-34
2022/08/18 02:45:49;;;;;;;16.30;14.73;;;22.60;99.90;;;;;;4593677;19;20103;-35
2022/08/18 02:47:20;;;;;;;16.75;14.95;;;22.60;99.90;;;;;;4593401;19;20018;-35
2022/08/18 02:48:52;;;;;;;17.27;15.05;;;22.50;99.90;;;;;;4590867;19;20031;-40
2022/08/18 02:50:23;;;;;;;18.48;16.55;;;22.50;99.90;;;;;;4592688;19;20344;-34
2022/08/18 02:51:54;;;;;;;17.70;15.82;;;22.50;99.90;;;;;;4593750;19;20002;-42
2022/08/18 02:53:27;;;;;;;15.63;14.10;;;22.50;99.90;;;;;;4593465;19;20019;-37
2022/08/18 02:55:02;;;;;;;16.40;14.70;;;22.50;99.90;;;;;;4593321;19;20014;-34
2022/08/18 02:56:33;;;;;;;16.33;14.63;;;22.50;99.90;;;;;;4592599;19;20014;-39
2022/08/18 02:58:04;;;;;;;17.20;15.30;;;22.50;99.90;;;;;;4592729;19;20463;-42
2022/08/18 02:59:37;;;;;;;17.75;15.88;;;22.50;99.90;;;;;;4593464;19;20041;-42
2022/08/18 03:01:08;;;;;;;16.05;14.38;;;22.50;99.90;;;;;;4591962;19;20015;-37
2022/08/18 03:02:39;;;;;;;17.30;15.50;;;22.50;99.90;;;;;;4593198;19;20020;-39
2022/08/18 03:04:13;;;;;;;17.02;15.15;;;22.50;99.90;;;;;;4591705;19;20021;-34
2022/08/18 03:05:44;;;;;;;16.40;14.68;;;22.50;99.90;;;;;;4593384;19;20015;-34
2022/08/18 03:07:15;;;;;;;16.23;14.63;;;22.50;99.90;;;;;;4593156;19;20029;-34
2022/08/18 03:08:49;;;;;;;15.93;14.23;;;22.50;99.90;;;;;;4593883;19;20535;-40
2022/08/18 03:10:20;;;;;;;15.88;14.32;;;22.50;99.90;;;;;;4593043;19;20019;-34
2022/08/18 03:11:52;;;;;;;14.75;13.30;;;22.50;99.90;;;;;;4593406;19;20023;-35
2022/08/18 03:13:23;;;;;;;15.02;13.52;;;22.50;99.90;;;;;;4593310;19;20026;-35
2022/08/18 03:14:54;;;;;;;15.80;14.18;;;22.50;99.90;;;;;;4593563;19;20002;-34
2022/08/18 03:16:25;;;;;;;14.98;13.57;;;22.50;99.90;;;;;;4592102;19;20090;-45
2022/08/18 03:17:56;;;;;;;16.23;13.88;;;22.50;99.90;;;;;;4592694;19;20015;-35
2022/08/18 03:19:28;;;;;;;14.20;12.80;;;22.50;99.90;;;;;;4591594;19;20010;-36
2022/08/18 03:21:06;;;;;;;;;;;22.50;99.90;;;;;;4593597;19;20463;-34
2022/08/18 03:22:37;;;;;;;15.13;13.55;;;22.50;99.90;;;;;;4592862;19;19918;-39
2022/08/18 03:24:08;;;;;;;13.65;12.30;;;22.50;99.90;;;;;;4591661;19;20468;-43
2022/08/18 03:25:44;;;;;;;15.38;13.93;;;22.50;99.90;;;;;;4593283;19;20007;-34
2022/08/18 03:27:15;;;;;;;15.82;13.82;;;22.50;99.90;;;;;;4591982;19;20007;-37
2022/08/18 03:28:48;;;;;;;14.85;13.43;;;22.40;99.90;;;;;;4591598;19;20010;-40
2022/08/18 03:30:19;;;;;;;16.45;13.48;;;22.40;99.90;;;;;;4591496;19;20011;-35
2022/08/18 03:31:50;;;;;;;15.05;13.55;;;22.50;99.90;;;;;;4592910;19;20070;-36
2022/08/18 03:33:21;;;;;;;15.20;13.60;;;22.40;99.90;;;;;;4592309;19;20401;-35
2022/08/18 03:34:52;;;;;;;13.85;12.55;;;22.40;99.90;;;;;;4591269;19;20037;-44
2022/08/18 03:36:24;;;;;;;;;;;22.50;99.90;;;;;;4593079;19;20074;-34
2022/08/18 03:37:58;;;;;;;15.57;14.07;;;22.40;99.90;;;;;;4591823;19;19922;-39
2022/08/18 03:39:30;;;;;;;14.48;13.02;;;22.50;99.90;;;;;;4591003;19;20014;-38
2022/08/18 03:41:01;;;;;;;15.05;13.57;;;22.40;99.90;;;;;;4592185;19;20088;-38
2022/08/18 03:42:32;;;;;;;15.68;14.02;;;22.40;99.90;;;;;;4592757;19;19999;-41
2022/08/18 03:44:03;;;;;;;13.52;12.15;;;22.40;99.90;;;;;;4588873;19;19999;-33
2022/08/18 03:45:34;;;;;;;15.10;13.60;;;22.40;99.90;;;;;;4591396;19;20505;-35
2022/08/18 03:47:09;;;;;;;14.68;12.95;;;22.40;99.90;;;;;;4592590;19;20083;-41
2022/08/18 03:48:40;;;;;;;15.25;13.20;;;22.40;99.90;;;;;;4592308;19;20018;-35
2022/08/18 03:50:11;;;;;;;14.40;12.90;;;22.40;99.90;;;;;;4592712;19;20002;-36
2022/08/18 03:51:45;;;;;;;14.40;12.95;;;22.40;99.90;;;;;;4592279;19;20017;-44
2022/08/18 03:53:16;;;;;;;14.25;12.82;;;22.40;99.90;;;;;;4589596;19;20077;-35
2022/08/18 03:54:47;;;;;;;13.80;12.45;;;22.40;99.90;;;;;;4591340;19;20007;-34
2022/08/18 03:56:22;;;;;;;13.85;12.27;;;22.40;99.90;;;;;;4592072;19;20011;-35
2022/08/18 03:57:56;;;;;;;13.68;12.25;;;22.40;99.90;;;;;;4592087;19;20355;-33
2022/08/18 03:59:29;;;;;;;13.93;12.52;;;22.40;99.90;;;;;;4591041;19;20041;-34
2022/08/18 04:01:02;;;;;;;14.23;12.80;;;22.40;99.90;;;;;;4591636;19;20337;-37
2022/08/18 04:02:33;;;;;;;14.48;12.93;;;22.40;99.90;;;;;;4590640;19;20472;-36
2022/08/18 04:04:06;;;;;;;14.10;12.68;;;22.40;99.90;;;;;;4590437;19;20090;-39
2022/08/18 04:05:40;;;;;;;15.02;13.52;;;22.40;99.90;;;;;;4590623;19;20017;-40
2022/08/18 04:07:13;;;;;;;13.50;12.20;;;22.40;99.90;;;;;;4591810;19;20014;-34
2022/08/18 04:08:45;;;;;;;15.00;13.55;;;22.40;99.90;;;;;;4591584;19;20036;-36
2022/08/18 04:10:16;;;;;;;15.63;14.05;;;22.40;99.90;;;;;;4591654;19;20011;-38
2022/08/18 04:11:48;;;;;;;14.43;12.93;;;22.40;99.90;;;;;;4590894;19;20088;-33
2022/08/18 04:13:19;;;;;;;14.00;12.70;;;22.30;99.90;;;;;;4591272;19;20021;-39
2022/08/18 04:14:50;;;;;;;14.85;13.32;;;22.30;99.90;;;;;;4591013;19;20066;-35
2022/08/18 04:16:22;;;;;;;13.02;11.63;;;22.30;99.90;;;;;;4591783;19;20022;-34
2022/08/18 04:17:57;;;;;;;13.13;11.82;;;22.30;99.90;;;;;;4592097;19;20036;-34
2022/08/18 04:19:27;;;;;;;13.23;12.02;;;22.30;99.90;;;;;;4589644;19;20019;-39
2022/08/18 04:21:03;;;;;;;12.82;11.55;;;22.30;99.90;;;;;;4591198;19;20010;-34
2022/08/18 04:22:35;;;;;;;12.25;11.05;;;22.30;99.90;;;;;;4591324;19;20018;-40
2022/08/18 04:24:07;;;;;;;12.85;11.52;;;22.30;99.90;;;;;;4590748;19;20327;-36
2022/08/18 04:25:38;;;;;;;;;;;22.30;99.90;;;;;;4591776;19;20006;-34
2022/08/18 04:27:09;;;;;;;12.23;11.02;;;22.30;99.90;;;;;;4590913;19;20229;-41
2022/08/18 04:28:41;;;;;;;12.35;11.13;;;22.30;99.90;;;;;;4588721;19;20093;-42
2022/08/18 04:30:12;;;;;;;12.68;11.38;;;22.30;99.90;;;;;;4591646;19;19999;-36
2022/08/18 04:31:43;;;;;;;12.68;11.38;;;22.30;99.90;;;;;;4591117;19;20037;-41
2022/08/18 04:33:14;;;;;;;11.30;10.30;;;22.30;99.90;;;;;;4591205;19;20014;-41
2022/08/18 04:34:45;;;;;;;13.05;11.75;;;22.30;99.90;;;;;;4591832;19;20015;-40
2022/08/18 04:36:16;;;;;;;12.40;11.20;;;22.30;99.90;;;;;;4591856;19;20003;-43
2022/08/18 04:37:48;;;;;;;12.98;11.77;;;22.30;99.90;;;;;;4590983;19;20027;-35
2022/08/18 04:39:19;;;;;;;13.20;11.88;;;22.30;99.90;;;;;;4591540;19;20018;-36
2022/08/18 04:40:50;;;;;;;13.98;12.68;;;22.40;99.90;;;;;;4590219;19;20015;-38
2022/08/18 04:42:21;;;;;;;14.63;13.30;;;22.50;99.90;;;;;;4590271;19;20010;-41
2022/08/18 04:43:57;;;;;;;17.42;15.82;;;22.50;99.90;;;;;;4590231;19;20007;-44
2022/08/18 04:45:28;;;;;;;16.75;15.15;;;22.60;99.90;;;;;;4590034;19;20029;-35
2022/08/18 04:46:59;;;;;;;20.13;18.33;;;22.60;99.90;;;;;;4593127;19;20036;-41
2022/08/18 04:48:34;;;;;;;24.48;22.33;;;22.70;99.90;;;;;;4591237;19;20388;-35
2022/08/18 04:50:05;;;;;;;26.38;24.17;;;22.70;99.90;;;;;;4589883;19;20015;-34
2022/08/18 04:51:39;;;;;;;;;;;22.80;99.90;;;;;;4592403;19;20014;-35
2022/08/18 04:55:00;;;;;;;44.38;40.53;;;22.80;99.90;;;;;;4589830;19;20524;-35
2022/08/18 04:56:33;;;;;;;;;;;22.90;99.90;;;;;;4590722;19;20011;-34
2022/08/18 04:58:04;;;;;;;45.78;41.90;;;23.00;99.90;;;;;;4590206;19;19925;-41
2022/08/18 04:59:36;;;;;;;;;;;23.10;99.90;;;;;;4591082;19;20077;-35
2022/08/18 05:01:08;;;;;;;50.45;46.15;;;23.10;99.90;;;;;;4590414;19;19921;-38
2022/08/18 05:02:40;;;;;;;46.72;42.72;;;23.10;99.90;;;;;;4589106;19;20016;-34
2022/08/18 05:04:13;;;;;;;43.05;39.53;;;23.10;99.90;;;;;;4588751;19;20345;-35
2022/08/18 05:05:44;;;;;;;41.33;37.55;;;23.20;99.90;;;;;;4589829;19;20022;-37
2022/08/18 05:07:17;;;;;;;33.25;30.45;;;23.20;99.90;;;;;;4590038;19;20015;-37
2022/08/18 05:08:48;;;;;;;30.40;27.70;;;23.20;99.90;;;;;;4590002;19;20014;-38
2022/08/18 05:10:19;;;;;;;26.67;24.23;;;23.20;99.90;;;;;;4591103;19;20372;-43
2022/08/18 05:11:51;;;;;;;25.00;22.77;;;23.20;99.90;;;;;;4590471;19;20062;-42
2022/08/18 05:13:24;;;;;;;23.05;21.05;;;23.30;99.90;;;;;;4589253;19;20029;-38
2022/08/18 05:14:58;;;;;;;23.08;20.92;;;23.20;99.90;;;;;;4589617;19;20017;-40
2022/08/18 05:16:30;;;;;;;21.88;19.98;;;23.30;99.90;;;;;;4589308;19;20040;-33
2022/08/18 05:18:04;;;;;;;21.73;19.83;;;23.30;99.90;;;;;;4589407;19;20381;-37
2022/08/18 05:19:35;;;;;;;22.25;20.25;;;23.30;99.90;;;;;;4588321;19;20014;-43
2022/08/18 05:21:07;;;;;;;20.38;18.65;;;23.30;99.90;;;;;;4589939;19;20396;-41
2022/08/18 05:22:40;;;;;;;21.30;19.33;;;23.30;99.90;;;;;;4588304;19;20018;-39
2022/08/18 05:24:11;;;;;;;19.98;18.25;;;23.40;99.90;;;;;;4589281;19;20018;-40
2022/08/18 05:25:42;;;;;;;27.20;24.60;;;23.40;99.90;;;;;;4590196;19;20010;-44
2022/08/18 05:27:13;;;;;;;29.75;26.98;;;23.00;99.90;;;;;;4589212;19;20065;-35
2022/08/18 05:28:44;;;;;;;31.85;28.65;;;22.60;99.90;;;;;;4589304;19;20523;-37
2022/08/18 05:30:16;;;;;;;31.38;28.42;;;22.30;99.90;;;;;;4589210;19;20018;-37
2022/08/18 05:31:48;;;;;;;30.52;27.58;;;22.10;99.90;;;;;;4588303;19;20017;-44
2022/08/18 05:33:19;;;;;;;32.65;29.70;;;22.00;99.90;;;;;;4588341;19;20022;-40
2022/08/18 05:34:50;;;;;;;32.83;29.83;;;21.80;99.90;;;;;;4588747;19;20007;-42
2022/08/18 05:36:30;;;;;;;32.45;29.20;;;21.70;99.90;;;;;;4589454;19;20077;-35
2022/08/18 05:38:10;;;;;;;33.15;30.05;;;21.70;99.90;;;;;;4590243;19;20006;-35
2022/08/18 05:39:56;;;;;;;33.42;30.27;;;21.60;99.90;;;;;;4591665;19;20022;-42
2022/08/18 05:41:33;;;;;;;31.95;28.95;;;21.60;99.90;;;;;;4595288;19;20037;-42
2022/08/18 05:43:04;;;;;;;33.42;30.40;;;21.60;99.90;;;;;;4594002;19;20062;-38
2022/08/18 05:44:43;;;;;;;31.77;28.73;;;21.60;99.90;;;;;;4592531;19;20459;-40
2022/08/18 05:46:15;;;;;;;32.20;29.10;;;21.60;99.90;;;;;;4593496;19;20015;-37
2022/08/18 05:47:46;;;;;;;32.95;29.90;;;21.50;99.90;;;;;;4593115;19;20022;-38
2022/08/18 05:49:18;;;;;;;32.13;28.90;;;21.60;99.90;;;;;;4592851;19;20018;-37
2022/08/18 05:50:49;;;;;;;;;;;21.90;99.90;;;;;;4593382;19;20007;-38
2022/08/18 05:52:34;;;;;;;27.88;25.05;;;22.20;99.90;;;;;;4591894;19;19919;-35
2022/08/18 05:58:16;;;;;;;22.83;20.73;;;23.30;99.90;;;;;;4592938;19;20006;-40
2022/08/18 05:59:48;;;;;;;20.15;18.33;;;23.60;99.90;;;;;;4591548;19;20020;-38
2022/08/18 06:01:21;;;;;;;21.45;19.50;;;23.70;99.90;;;;;;4591935;19;20080;-44
2022/08/18 06:03:27;;;;;;;22.80;20.85;;;23.80;99.90;;;;;;4591737;19;20007;-42
2022/08/18 06:05:19;;;;;;;23.00;20.70;;;23.90;99.90;;;;;;4591230;19;20018;-41
2022/08/18 06:06:50;;;;;;;19.30;17.58;;;24.00;99.90;;;;;;4594486;19;20014;-35
2022/08/18 06:08:23;;;;;;;22.20;20.05;;;24.10;99.90;;;;;;4592972;19;20018;-40
2022/08/18 06:09:54;;;;;;;18.77;17.17;;;24.10;99.90;;;;;;4592978;19;20014;-43
2022/08/18 06:11:26;;;;;;;19.67;17.88;;;24.10;99.90;;;;;;4592932;19;20010;-40
2022/08/18 06:12:58;;;;;;;19.60;17.73;;;24.10;99.90;;;;;;4592063;19;20436;-40
2022/08/18 06:14:29;;;;;;;16.85;15.35;;;24.20;99.90;;;;;;4591200;19;20009;-37
2022/08/18 06:16:31;;;;;;;21.35;19.38;;;24.20;99.90;;;;;;4591180;19;20704;-40
2022/08/18 06:18:07;;;;;;;20.75;18.85;;;24.20;99.90;;;;;;4592769;19;20043;-40
2022/08/18 06:19:40;;;;;;;19.25;17.65;;;24.20;99.90;;;;;;4589772;19;20014;-40
2022/08/18 06:21:18;;;;;;;21.33;19.15;;;24.20;99.90;;;;;;4591999;19;20028;-45
2022/08/18 06:23:11;;;;;;;20.50;18.70;;;24.40;99.90;;;;;;4591715;19;20015;-34
2022/08/18 06:25:00;;;;;;;19.45;17.70;;;24.40;99.90;;;;;;4590784;19;20077;-37
2022/08/18 06:26:47;;;;;;;21.02;18.95;;;24.50;99.90;;;;;;4591719;19;20033;-38
2022/08/18 06:28:19;;;;;;;21.83;19.73;;;24.50;99.90;;;;;;4590751;19;20014;-35
2022/08/18 06:30:06;;;;;;;19.48;17.73;;;24.60;99.90;;;;;;4590492;19;20094;-37
2022/08/18 06:32:00;;;;;;;20.88;19.00;;;24.50;99.90;;;;;;4590823;19;20027;-41
2022/08/18 06:33:43;;;;;;;20.38;18.45;;;24.60;99.90;;;;;;4591054;19;20014;-43
2022/08/18 06:35:35;;;;;;;16.33;14.93;;;24.60;99.90;;;;;;4590803;19;20489;-37
2022/08/18 06:37:29;;;;;;;19.90;17.90;;;24.60;99.90;;;;;;4591666;19;20093;-38
2022/08/18 06:39:29;;;;;;;20.50;18.38;;;24.60;99.90;;;;;;4592259;19;20078;-42
2022/08/18 06:41:36;;;;;;;16.25;14.88;;;24.60;99.90;;;;;;4590711;19;20483;-42
2022/08/18 06:43:10;;;;;;;18.60;16.67;;;24.50;99.90;;;;;;4593111;19;20039;-38
2022/08/18 06:44:47;;;;;;;17.52;16.02;;;24.50;99.90;;;;;;4591874;19;20015;-44
2022/08/18 06:46:21;;;;;;;19.58;17.67;;;24.50;99.90;;;;;;4592193;19;20030;-37
2022/08/18 06:47:58;;;;;;;13.98;12.77;;;24.50;99.90;;;;;;4592683;19;20450;-37
2022/08/18 06:49:39;;;;;;;22.85;20.85;;;24.40;99.90;;;;;;4593032;19;20021;-35
2022/08/18 06:51:10;;;;;;;28.15;25.02;;;23.70;99.90;;;;;;4591665;19;20032;-41
2022/08/18 06:52:57;;;;;;;29.45;26.67;;;23.10;99.90;;;;;;4591904;19;20034;-41
2022/08/18 06:54:28;;;;;;;29.35;26.60;;;22.70;99.90;;;;;;4592955;19;20070;-35
2022/08/18 06:56:08;;;;;;;;;;;22.40;99.90;;;;;;4593022;19;20021;-38
2022/08/18 06:57:56;;;;;;;30.85;27.90;;;22.20;99.90;;;;;;4591783;19;19919;-39
2022/08/18 06:59:32;;;;;;;31.80;28.55;;;22.10;99.90;;;;;;4592725;19;20412;-38
2022/08/18 07:01:06;;;;;;;30.95;27.80;;;22.00;99.90;;;;;;4591830;19;20074;-40
2022/08/18 07:02:40;;;;;;;30.50;27.45;;;22.00;99.90;;;;;;4592514;19;20022;-45
2022/08/18 07:04:37;;;;;;;30.88;27.88;;;22.00;99.90;;;;;;4592425;19;20328;-38
2022/08/18 07:06:20;;;;;;;30.25;27.05;;;22.00;99.90;;;;;;4592368;19;20010;-37
2022/08/18 07:08:09;;;;;;;30.67;27.83;;;21.90;99.90;;;;;;4592615;19;20017;-41
2022/08/18 07:09:40;;;;;;;28.83;26.08;;;21.90;99.90;;;;;;4592847;19;20018;-36
2022/08/18 07:11:20;;;;;;;30.27;26.20;;;21.80;99.90;;;;;;4592958;19;20055;-37
2022/08/18 07:12:51;;;;;;;28.30;25.80;;;21.80;99.90;;;;;;4593058;19;20479;-38
2022/08/18 07:14:24;;;;;;;29.45;26.42;;;21.90;99.90;;;;;;4591688;19;20066;-35
2022/08/18 07:16:15;;;;;;;28.70;26.10;;;21.90;99.90;;;;;;4592418;19;20018;-36
2022/08/18 07:17:46;;;;;;;29.17;26.23;;;21.80;99.90;;;;;;4592067;19;20003;-34
2022/08/18 07:19:21;;;;;;;29.13;26.33;;;21.80;99.90;;;;;;4588421;19;20335;-40
2022/08/18 07:21:01;;;;;;;22.42;19.65;;;21.80;99.90;;;;;;4591521;19;20007;-35
2022/08/18 07:22:32;;;;;;;26.40;23.92;;;21.80;99.90;;;;;;4591588;19;20433;-42
2022/08/18 07:24:14;;;;;;;30.25;27.38;;;21.80;99.90;;;;;;4590148;19;20531;-38
2022/08/18 07:26:09;;;;;;;29.05;26.25;;;21.80;99.90;;;;;;4591402;19;20530;-44
2022/08/18 07:27:51;;;;;;;28.85;26.33;;;21.80;99.90;;;;;;4591772;19;20010;-40
2022/08/18 07:29:22;;;;;;;30.45;27.27;;;21.80;99.90;;;;;;4591564;19;20006;-38
2022/08/18 07:31:04;;;;;;;29.42;26.63;;;21.70;99.90;;;;;;4592150;19;20017;-37
2022/08/18 07:32:38;;;;;;;29.25;26.55;;;21.80;99.90;;;;;;4591357;19;20037;-35
2022/08/18 07:34:15;;;;;;;29.95;27.25;;;21.70;99.90;;;;;;4591991;19;20455;-38
2022/08/18 07:35:49;;;;;;;30.27;27.33;;;21.70;99.90;;;;;;4592218;19;20015;-36
2022/08/18 07:37:29;;;;;;;31.05;28.25;;;21.70;99.90;;;;;;4592557;19;19999;-44
2022/08/18 07:39:27;;;;;;;30.52;27.58;;;21.70;99.90;;;;;;4592392;19;20006;-34
2022/08/18 07:41:02;;;;;;;25.92;23.45;;;21.90;99.90;;;;;;4591223;19;20559;-43
2022/08/18 07:42:38;;;;;;;26.98;24.42;;;21.80;99.90;;;;;;4591277;19;20027;-43
2022/08/18 07:44:24;;;;;;;27.17;24.42;;;22.00;99.90;;;;;;4590203;19;20010;-39
2022/08/18 07:46:01;;;;;;;27.38;24.88;;;21.90;99.90;;;;;;4592588;19;19999;-38
2022/08/18 07:48:03;;;;;;;28.42;25.73;;;21.80;99.90;;;;;;4591066;19;20011;-39
2022/08/18 07:49:35;;;;;;;29.60;26.85;;;21.80;99.90;;;;;;4592159;19;20032;-35
2022/08/18 07:51:43;;;;;;;30.52;27.60;;;21.70;99.90;;;;;;4591113;19;20010;-42
2022/08/18 07:53:55;;;;;;;30.58;27.55;;;21.60;99.90;;;;;;4589654;19;20082;-35
2022/08/18 07:55:28;;;;;;;30.45;27.55;;;21.60;99.90;;;;;;4589687;19;20019;-42
2022/08/18 07:57:02;;;;;;;27.98;25.33;;;21.60;99.90;;;;;;4589638;19;20074;-38
2022/08/18 07:58:39;;;;;;;29.13;25.98;;;21.60;99.90;;;;;;4590111;19;20025;-43
2022/08/18 08:00:11;;;;;;;28.83;25.92;;;21.60;99.90;;;;;;4589918;19;20111;-36
2022/08/18 08:02:14;;;;;;;24.58;22.30;;;21.60;99.90;;;;;;4589751;19;20006;-37
2022/08/18 08:03:53;;;;;;;20.67;18.67;;;21.70;99.90;;;;;;4587196;19;20015;-38
2022/08/18 08:05:41;;;;;;;19.58;17.58;;;21.80;99.90;;;;;;4589526;19;20506;-37
2022/08/18 08:07:16;;;;;;;20.10;18.20;;;22.20;99.90;;;;;;4589895;19;20002;-36
2022/08/18 08:08:57;;;;;;;18.63;16.83;;;22.60;99.90;;;;;;4589964;19;20002;-38
2022/08/18 08:11:04;;;;;;;18.30;16.58;;;22.90;99.90;;;;;;4589465;19;20030;-40
2022/08/18 08:12:42;;;;;;;17.58;15.98;;;23.10;99.90;;;;;;4589365;19;20007;-34
2022/08/18 08:14:35;;;;;;;16.98;15.38;;;23.30;99.90;;;;;;4589280;19;20536;-34
2022/08/18 08:16:39;;;;;;;19.40;17.17;;;23.40;99.90;;;;;;4589081;19;20011;-34